Time;durP1;ratioP1;P1;durP2;ratioP2;P2;SDS_P1;SDS_P2;PMS_P1;PMS_P2;Temp;Humidity;BMP_temperature;BMP_pressure;BME280_temperature;BME280_humidity;BME280_pressure;Samples;Min_cycle;Max_cycle;Signal;HPM_P1;HPM_P2
2022/04/30 00:01:45;;;;;;;11.38;5.60;;;;;;;4.73;98.64;100596.22;5023850;28;20043;-53
2022/04/30 00:04:30;;;;;;;11.82;5.63;;;;;;;4.63;100.00;100587.47;5025581;28;20049;-53
2022/04/30 00:07:16;;;;;;;13.00;6.00;;;;;;;4.59;100.00;100575.31;5024488;28;20045;-53
2022/04/30 00:10:03;;;;;;;13.30;6.53;;;;;;;4.63;100.00;100585.72;5028059;28;20377;-53
2022/04/30 00:12:47;;;;;;;16.85;7.55;;;;;;;4.60;100.00;100587.41;5024176;28;20176;-52
2022/04/30 00:15:34;;;;;;;12.82;6.50;;;;;;;4.57;100.00;100592.56;5024082;28;20049;-51
2022/04/30 00:18:18;;;;;;;13.20;7.18;;;;;;;4.47;100.00;100590.72;5026146;28;20045;-52
2022/04/30 00:21:05;;;;;;;16.58;7.72;;;;;;;4.47;100.00;100586.41;5023896;28;20401;-53
2022/04/30 00:23:49;;;;;;;17.85;7.78;;;;;;;4.49;100.00;100591.63;5024152;28;20041;-52
2022/04/30 00:26:34;;;;;;;14.57;7.25;;;;;;;4.43;100.00;100589.81;5025226;28;20065;-52
2022/04/30 00:29:19;;;;;;;12.07;6.97;;;;;;;4.37;100.00;100589.75;5024048;28;20092;-52
2022/04/30 00:32:04;;;;;;;10.70;6.28;;;;;;;4.37;100.00;100590.59;5023436;28;20739;-52
2022/04/30 00:34:48;;;;;;;13.02;6.03;;;;;;;4.33;100.00;100593.16;5025245;28;21195;-53
2022/04/30 00:37:33;;;;;;;10.40;5.72;;;;;;;4.27;100.00;100598.25;5027041;28;20391;-53
2022/04/30 00:40:17;;;;;;;13.25;6.47;;;;;;;4.12;100.00;100596.31;5023959;28;20049;-53
2022/04/30 00:43:02;;;;;;;10.70;5.28;;;;;;;4.24;100.00;100586.13;5025107;28;20108;-52
2022/04/30 00:45:48;;;;;;;11.98;6.05;;;;;;;4.16;100.00;100591.22;5023805;28;20452;-53
2022/04/30 00:48:33;;;;;;;10.93;5.70;;;;;;;4.14;100.00;100587.72;5030338;28;20053;-51
2022/04/30 00:51:19;;;;;;;10.65;6.30;;;;;;;4.12;100.00;100584.22;5023520;28;20124;-51
2022/04/30 00:54:06;;;;;;;9.10;4.63;;;;;;;4.04;100.00;100585.84;5023381;28;20041;-52
2022/04/30 00:56:55;;;;;;;9.18;4.57;;;;;;;4.08;100.00;100586.75;5025691;28;20050;-52
2022/04/30 00:59:44;;;;;;;10.05;5.35;;;;;;;4.04;100.00;100585.00;5030220;28;20053;-53
2022/04/30 01:02:31;;;;;;;8.13;4.80;;;;;;;4.03;100.00;100580.63;5026761;28;20088;-52
2022/04/30 01:05:34;;;;;;;8.63;5.38;;;;;;;3.97;100.00;100582.31;5031557;28;20045;-53
2022/04/30 01:08:20;;;;;;;8.02;4.55;;;;;;;3.84;100.00;100570.03;5029905;28;20407;-52
2022/04/30 01:11:05;;;;;;;10.23;4.38;;;;;;;3.86;100.00;100567.44;5030637;28;20102;-52
2022/04/30 01:13:49;;;;;;;10.00;4.03;;;;;;;3.78;100.00;100575.13;5030442;28;20088;-53
2022/04/30 01:16:35;;;;;;;11.68;4.93;;;;;;;3.60;100.00;100578.28;5032129;28;20061;-51
2022/04/30 01:19:20;;;;;;;8.55;4.63;;;;;;;3.68;100.00;100586.19;5028387;28;20041;-52
2022/04/30 01:22:20;;;;;;;7.65;4.10;;;;;;;3.77;100.00;100577.66;5031211;28;20488;-52
2022/04/30 01:25:05;;;;;;;9.85;4.55;;;;;;;3.78;100.00;100582.03;5031795;28;20049;-51
2022/04/30 01:27:51;;;;;;;9.93;4.50;;;;;;;3.73;100.00;100580.22;5026564;28;20045;-51
2022/04/30 01:30:35;;;;;;;9.00;4.47;;;;;;;3.74;100.00;100569.03;5027675;28;20176;-52
2022/04/30 01:39:26;;;;;;;9.48;4.43;;;;;;;3.61;100.00;100577.47;5026131;28;20041;-52
2022/04/30 01:42:11;;;;;;;9.50;4.68;;;;;;;3.67;100.00;100569.78;5027327;28;20041;-53
2022/04/30 01:44:57;;;;;;;8.85;4.07;;;;;;;3.67;100.00;100574.06;5027213;28;20836;-52
2022/04/30 01:47:44;;;;;;;8.20;4.57;;;;;;;3.66;100.00;100570.63;5027009;28;20399;-52
2022/04/30 01:50:29;;;;;;;9.50;4.53;;;;;;;3.66;100.00;100573.19;5027556;28;20057;-51
2022/04/30 01:53:14;;;;;;;9.40;4.28;;;;;;;3.65;100.00;100573.19;5026505;28;20049;-51
2022/04/30 01:55:59;;;;;;;8.73;4.32;;;;;;;3.66;100.00;100570.63;5027325;28;20078;-52
2022/04/30 01:58:59;;;;;;;11.00;5.25;;;;;;;3.63;100.00;100573.16;5023260;28;20468;-52
2022/04/30 02:01:44;;;;;;;9.02;4.95;;;;;;;3.62;100.00;100566.25;5006214;28;20060;-52
2022/04/30 02:04:30;;;;;;;12.88;5.57;;;;;;;3.59;100.00;100560.16;5028251;28;20041;-52
2022/04/30 02:07:16;;;;;;;13.20;5.90;;;;;;;3.59;100.00;100567.91;5031530;28;20385;-51
2022/04/30 02:10:02;;;;;;;11.35;5.85;;;;;;;3.54;100.00;100554.00;5030451;28;20045;-51
2022/04/30 02:12:49;;;;;;;11.77;5.90;;;;;;;3.56;100.00;100555.78;5026666;28;20373;-52
2022/04/30 02:15:34;;;;;;;13.57;4.95;;;;;;;3.57;100.00;100548.88;5022838;28;20050;-53
2022/04/30 02:18:22;;;;;;;13.35;6.50;;;;;;;3.51;100.00;100552.28;5022602;28;20057;-51
2022/04/30 02:21:06;;;;;;;12.10;5.40;;;;;;;3.51;100.00;100547.09;5023028;28;20045;-52
2022/04/30 02:23:57;;;;;;;13.02;5.43;;;;;;;3.39;100.00;100546.91;5023104;28;20053;-51
2022/04/30 02:26:43;;;;;;;13.98;6.10;;;;;;;3.28;100.00;100546.69;5026273;28;20045;-52
2022/04/30 02:29:27;;;;;;;11.30;5.22;;;;;;;3.37;100.00;100544.25;5025813;28;20041;-52
2022/04/30 02:32:12;;;;;;;13.00;5.45;;;;;;;3.44;100.00;100534.88;5026094;28;20061;-52
2022/04/30 02:34:57;;;;;;;13.18;6.22;;;;;;;3.48;100.00;100537.53;5026312;28;20115;-51
2022/04/30 02:37:44;;;;;;;14.80;6.82;;;;;;;3.49;100.00;100536.69;5035635;28;20090;-52
2022/04/30 02:40:30;;;;;;;12.68;5.82;;;;;;;3.49;100.00;100533.22;5034628;28;20155;-51
2022/04/30 02:43:16;;;;;;;12.63;5.38;;;;;;;3.49;100.00;100534.09;5033788;28;20489;-52
2022/04/30 02:46:00;;;;;;;14.05;5.97;;;;;;;3.48;100.00;100542.72;5034002;28;20404;-52
2022/04/30 02:48:45;;;;;;;15.10;6.53;;;;;;;3.47;100.00;100537.50;5035114;28;20045;-52
2022/04/30 02:51:29;;;;;;;11.52;6.07;;;;;;;3.46;100.00;100530.59;5035439;28;20068;-52
2022/04/30 02:54:15;;;;;;;13.40;5.70;;;;;;;3.46;100.00;100528.00;5032162;28;20049;-53
2022/04/30 02:57:01;;;;;;;16.67;7.47;;;;;;;3.46;100.00;100526.28;5034997;28;20068;-52
2022/04/30 02:59:54;;;;;;;12.95;5.35;;;;;;;3.45;100.00;100521.97;5033822;28;20053;-51
2022/04/30 03:02:58;;;;;;;17.52;7.93;;;;;;;3.43;100.00;100522.78;5033772;28;20072;-53
2022/04/30 03:05:44;;;;;;;19.08;9.00;;;;;;;3.41;100.00;100530.53;5033562;28;20057;-53
2022/04/30 03:08:29;;;;;;;18.67;9.32;;;;;;;3.42;100.00;100532.28;5025507;28;20049;-52
2022/04/30 03:11:13;;;;;;;16.67;7.95;;;;;;;3.42;100.00;100524.50;5025459;28;20432;-52
2022/04/30 03:13:58;;;;;;;13.38;6.97;;;;;;;3.35;100.00;100530.44;5025380;28;20049;-52
2022/04/30 03:22:51;;;;;;;13.75;6.63;;;;;;;3.44;100.00;100511.56;5034022;28;21097;-52
2022/04/30 03:25:35;;;;;;;11.38;6.60;;;;;;;3.47;100.00;100517.66;5032780;28;20046;-52
2022/04/30 03:28:20;;;;;;;11.48;5.70;;;;;;;3.35;100.00;100514.00;5027160;28;20053;-51
2022/04/30 03:31:05;;;;;;;13.43;6.20;;;;;;;3.47;100.00;100514.19;5024410;28;20046;-52
2022/04/30 03:33:50;;;;;;;13.23;6.32;;;;;;;3.52;100.00;100517.75;5022787;28;20053;-51
2022/04/30 03:36:36;;;;;;;13.40;6.60;;;;;;;3.51;100.00;100514.28;5023859;28;20061;-52
2022/04/30 03:39:19;;;;;;;13.63;6.35;;;;;;;3.59;100.00;100519.56;5025390;28;20077;-53
2022/04/30 03:42:05;;;;;;;10.18;5.65;;;;;;;3.53;100.00;100511.69;5024484;28;20052;-52
2022/04/30 03:44:49;;;;;;;13.27;6.20;;;;;;;3.50;100.00;100514.25;5025121;28;20749;-51
2022/04/30 03:47:37;;;;;;;15.52;7.20;;;;;;;3.63;100.00;100513.56;5025488;28;20484;-52
2022/04/30 03:50:21;;;;;;;14.02;7.72;;;;;;;3.68;100.00;100513.66;5037324;28;20045;-53
2022/04/30 03:53:06;;;;;;;14.50;7.32;;;;;;;3.63;100.00;100513.56;5028768;28;20076;-52
2022/04/30 03:55:51;;;;;;;11.18;6.10;;;;;;;3.91;100.00;100511.38;5032394;28;20050;-53
2022/04/30 03:58:37;;;;;;;11.38;6.20;;;;;;;4.07;100.00;100512.44;5025355;28;20060;-53
2022/04/30 04:01:22;;;;;;;10.38;6.32;;;;;;;4.19;100.00;100508.28;5027674;28;20050;-52
2022/04/30 04:04:06;;;;;;;18.20;6.82;;;;;;;4.31;100.00;100511.84;5024998;28;20758;-52
2022/04/30 04:06:52;;;;;;;11.18;6.35;;;;;;;4.43;100.00;100512.88;5024795;28;20064;-52
2022/04/30 04:09:36;;;;;;;13.95;6.65;;;;;;;4.49;100.00;100529.38;5033073;28;20045;-51
2022/04/30 04:12:21;;;;;;;16.52;6.80;;;;;;;4.59;100.00;100519.09;5033688;28;20053;-52
2022/04/30 04:18:10;;;;;;;9.98;5.88;;;;;;;4.79;100.00;100518.44;5031724;28;20049;-52
2022/04/30 04:20:56;;;;;;;14.73;7.75;;;;;;;4.72;100.00;100514.03;5029721;28;20171;-52
2022/04/30 04:26:45;;;;;;;25.80;13.32;;;;;;;5.15;100.00;100500.56;5000802;28;20069;-52
2022/04/30 04:29:29;;;;;;;29.67;18.85;;;;;;;5.34;100.00;100511.09;5024430;28;20927;-53
2022/04/30 04:32:14;;;;;;;24.42;13.32;;;;;;;5.57;100.00;100519.06;5023759;28;20045;-53
2022/04/30 04:34:58;;;;;;;19.88;11.65;;;;;;;5.79;100.00;100518.34;5024008;28;20052;-52
2022/04/30 04:37:43;;;;;;;22.10;10.20;;;;;;;6.03;100.00;100520.22;5030382;28;20041;-52
2022/04/30 04:40:28;;;;;;;12.45;7.45;;;;;;;6.22;100.00;100520.31;5032974;28;20049;-52
2022/04/30 04:43:12;;;;;;;17.40;8.75;;;;;;;6.37;100.00;100524.66;5032649;28;20510;-52
2022/04/30 04:45:57;;;;;;;15.75;8.25;;;;;;;6.42;100.00;100525.56;5032877;28;20399;-53
2022/04/30 04:48:42;;;;;;;16.38;9.07;;;;;;;6.30;100.00;100519.47;5033525;28;20068;-52
2022/04/30 04:51:27;;;;;;;18.10;9.05;;;;;;;6.56;100.00;100523.88;5039220;28;20049;-52
2022/04/30 04:54:12;;;;;;;16.10;8.80;;;;;;;6.70;100.00;100530.00;5036804;28;20045;-52
2022/04/30 04:56:56;;;;;;;17.75;8.65;;;;;;;6.74;100.00;100525.66;5023699;28;20045;-53
2022/04/30 04:59:41;;;;;;;18.83;8.55;;;;;;;6.65;100.00;100525.63;5023338;28;20045;-52
2022/04/30 05:02:26;;;;;;;12.77;7.45;;;;;;;6.75;100.00;100528.25;5020030;28;20054;-53
2022/04/30 05:05:11;;;;;;;16.00;7.85;;;;;;;6.81;100.00;100532.59;5020146;28;20068;-52
2022/04/30 05:07:55;;;;;;;15.65;7.72;;;;;;;6.84;100.00;100524.81;5020503;28;20049;-52
2022/04/30 05:10:39;;;;;;;15.55;8.07;;;;;;;6.64;100.00;100524.78;5022328;28;20223;-52
2022/04/30 05:13:24;;;;;;;22.95;10.25;;;;;;;6.65;100.00;100531.69;5019496;28;20049;-52
2022/04/30 05:16:08;;;;;;;18.67;9.45;;;;;;;6.72;100.00;100533.44;5021564;28;20127;-52
2022/04/30 05:18:52;;;;;;;17.45;8.32;;;;;;;7.20;100.00;100531.78;5020665;28;20072;-53
2022/04/30 05:21:37;;;;;;;18.33;8.75;;;;;;;7.49;100.00;100536.13;5019947;28;20053;-53
2022/04/30 05:24:22;;;;;;;23.98;9.90;;;;;;;7.76;100.00;100537.81;5027955;28;20038;-52
2022/04/30 05:27:08;;;;;;;18.75;9.70;;;;;;;7.94;100.00;100535.16;5027588;28;20044;-51
2022/04/30 05:29:52;;;;;;;19.33;10.27;;;;;;;8.05;100.00;100534.25;5028424;28;20041;-53
2022/04/30 05:32:37;;;;;;;14.77;8.50;;;;;;;8.29;100.00;100538.53;5028866;28;20053;-52
2022/04/30 05:35:22;;;;;;;19.58;10.27;;;;;;;8.48;100.00;100536.72;5029909;28;20044;-51
2022/04/30 05:38:06;;;;;;;17.50;11.00;;;;;;;8.33;100.00;100541.13;5029049;28;20488;-52
2022/04/30 05:40:51;;;;;;;26.92;11.90;;;;;;;8.42;100.00;100542.84;5029355;28;20435;-52
2022/04/30 05:43:36;;;;;;;25.98;10.60;;;;;;;8.73;100.00;100540.94;5028621;28;20053;-54
2022/04/30 05:46:21;;;;;;;17.02;9.98;;;;;;;8.92;100.00;100533.00;5020197;28;20187;-53
2022/04/30 05:49:05;;;;;;;17.90;10.60;;;;;;;9.15;98.93;100540.66;5022725;28;20049;-53
2022/04/30 05:51:50;;;;;;;23.30;11.07;;;;;;;8.83;99.39;100528.69;5029928;28;20045;-52
2022/04/30 05:54:35;;;;;;;16.38;10.18;;;;;;;9.27;99.18;100546.66;5023021;28;20068;-52
2022/04/30 05:57:20;;;;;;;19.70;10.52;;;;;;;9.59;96.67;100543.78;5021344;28;20057;-52
2022/04/30 06:00:05;;;;;;;23.35;11.02;;;;;;;9.89;94.92;100546.09;5027707;28;20053;-54
2022/04/30 06:02:51;;;;;;;15.18;9.73;;;;;;;10.07;93.58;100545.88;5025669;28;20218;-53
2022/04/30 06:05:37;;;;;;;23.45;12.25;;;;;;;10.15;92.78;100551.91;5024892;28;20045;-52
2022/04/30 06:08:21;;;;;;;24.95;15.30;;;;;;;9.59;92.54;100524.59;5026712;28;20065;-52
2022/04/30 06:11:06;;;;;;;31.33;17.08;;;;;;;9.57;97.81;100540.28;5024406;28;20495;-54
2022/04/30 06:13:50;;;;;;;35.45;19.33;;;;;;;9.59;98.10;100537.69;5025477;28;20128;-54
2022/04/30 06:16:35;;;;;;;27.48;17.50;;;;;;;9.77;98.55;100539.22;5033442;28;20064;-52
2022/04/30 06:19:20;;;;;;;24.73;15.20;;;;;;;10.33;94.82;100539.50;5032104;28;20049;-52
2022/04/30 06:22:04;;;;;;;27.73;16.52;;;;;;;10.54;92.22;100539.25;5031709;28;20499;-53
2022/04/30 06:24:48;;;;;;;26.48;16.58;;;;;;;10.82;88.94;100533.59;5025360;28;20049;-53
2022/04/30 06:27:33;;;;;;;27.55;16.98;;;;;;;10.88;85.63;100534.38;5022441;28;20057;-53
2022/04/30 06:30:18;;;;;;;27.63;17.42;;;;;;;11.05;83.11;100539.38;5026571;28;20049;-54
2022/04/30 06:33:03;;;;;;;31.13;18.52;;;;;;;11.18;83.56;100534.81;5028893;28;20065;-54
2022/04/30 06:35:47;;;;;;;26.88;17.55;;;;;;;11.30;83.65;100526.72;5034990;28;20069;-53
2022/04/30 06:38:32;;;;;;;34.85;18.13;;;;;;;10.88;85.09;100533.53;5032959;28;20425;-54
2022/04/30 06:41:17;;;;;;;31.08;17.85;;;;;;;11.46;80.30;100525.56;5025396;28;20041;-54
2022/04/30 06:44:02;;;;;;;64.68;39.47;;;;;;;11.40;79.00;100535.31;5025138;28;20053;-53
2022/04/30 06:46:46;;;;;;;38.40;23.58;;;;;;;12.10;77.25;100533.19;5023810;28;20060;-54
2022/04/30 06:49:31;;;;;;;34.13;24.60;;;;;;;11.76;76.64;100535.56;5023652;28;20057;-54
2022/04/30 06:52:15;;;;;;;36.15;25.33;;;;;;;12.30;71.79;100535.41;5032763;28;20053;-54
2022/04/30 06:58:05;;;;;;;42.33;23.08;;;;;;;12.73;68.21;100534.50;5025359;28;20046;-52
2022/04/30 07:03:39;;;;;;;38.67;23.35;;;;;;;13.30;65.52;100537.56;5023275;28;20073;-53
2022/04/30 07:06:24;;;;;;;45.45;27.65;;;;;;;13.49;64.88;100529.22;5025193;28;20412;-54
2022/04/30 07:09:09;;;;;;;41.42;25.75;;;;;;;13.73;65.01;100544.34;5027651;28;20061;-53
2022/04/30 07:11:54;;;;;;;44.47;28.10;;;;;;;14.02;64.50;100540.94;5032207;28;20138;-54
2022/04/30 07:14:40;;;;;;;47.13;28.48;;;;;;;14.09;63.26;100531.09;5032703;28;20060;-54
2022/04/30 07:17:24;;;;;;;45.47;27.20;;;;;;;14.26;63.07;100527.97;5033675;28;20132;-54
2022/04/30 07:20:09;;;;;;;42.63;26.02;;;;;;;14.45;62.01;100534.44;5024900;28;20266;-52
2022/04/30 07:22:54;;;;;;;43.88;26.27;;;;;;;13.97;61.84;100536.69;5030482;28;20068;-54
2022/04/30 07:25:38;;;;;;;39.05;27.08;;;;;;;14.19;63.27;100542.22;5030377;28;20177;-53
2022/04/30 07:28:23;;;;;;;46.00;30.15;;;;;;;13.62;61.87;100537.66;5032956;28;20388;-53
2022/04/30 07:31:10;;;;;;;46.30;27.23;;;;;;;14.33;62.34;100536.56;5027340;28;20045;-53
2022/04/30 07:33:55;;;;;;;47.53;29.92;;;;;;;14.28;58.19;100536.69;5028476;28;20060;-53
2022/04/30 07:36:40;;;;;;;38.97;28.35;;;;;;;14.13;59.80;100527.44;5023085;28;20057;-53
2022/04/30 07:39:24;;;;;;;43.40;26.92;;;;;;;14.46;60.29;100530.91;5023797;28;20053;-53
2022/04/30 07:42:09;;;;;;;39.03;25.48;;;;;;;15.32;58.55;100525.59;5024160;28;20183;-52
2022/04/30 07:44:59;;;;;;;36.03;24.13;;;;;;;15.49;54.86;100527.66;5024030;28;20049;-54
2022/04/30 07:47:43;;;;;;;38.80;24.00;;;;;;;15.03;54.45;100528.31;5024671;28;20128;-53
2022/04/30 07:50:35;;;;;;;36.00;22.08;;;;;;;15.48;55.25;100522.44;5026386;28;20053;-54
2022/04/30 07:53:19;;;;;;;31.90;18.60;;;;;;;16.30;53.44;100530.09;5024054;28;20045;-52
2022/04/30 07:56:05;;;;;;;24.77;15.98;;;;;;;16.51;47.59;100530.19;5025262;28;20057;-54
2022/04/30 07:58:49;;;;;;;20.85;14.73;;;;;;;16.55;48.29;100531.81;5025877;28;20048;-53
2022/04/30 08:01:34;;;;;;;28.10;16.52;;;;;;;16.80;49.71;100526.44;5026650;28;20053;-54
2022/04/30 08:04:18;;;;;;;25.13;15.43;;;;;;;17.27;48.39;100526.31;5025679;28;20644;-53
2022/04/30 08:07:03;;;;;;;21.75;12.93;;;;;;;17.75;45.17;100530.47;5026242;28;20056;-53
2022/04/30 08:09:47;;;;;;;22.92;14.93;;;;;;;17.57;42.28;100540.06;5026577;28;20532;-53
2022/04/30 08:12:32;;;;;;;20.73;11.85;;;;;;;17.66;43.62;100531.72;5028194;28;20044;-54
2022/04/30 08:15:16;;;;;;;18.73;12.05;;;;;;;18.01;43.86;100541.78;5028171;28;20111;-52
2022/04/30 08:18:00;;;;;;;18.10;10.07;;;;;;;18.19;41.90;100535.63;5029053;28;20562;-54
2022/04/30 08:20:46;;;;;;;16.45;9.65;;;;;;;18.59;41.07;100534.69;5027577;28;20049;-52
2022/04/30 08:23:33;;;;;;;16.23;8.93;;;;;;;18.96;39.94;100538.25;5029101;28;20045;-54
2022/04/30 08:26:17;;;;;;;14.85;11.00;;;;;;;18.42;38.51;100543.38;5023419;28;20065;-53
2022/04/30 08:29:03;;;;;;;12.60;9.52;;;;;;;18.66;38.72;100536.09;5022633;28;20057;-54
2022/04/30 08:31:47;;;;;;;13.02;7.10;;;;;;;18.76;37.18;100539.22;5027142;28;20050;-53
2022/04/30 08:34:32;;;;;;;14.02;7.00;;;;;;;19.11;38.26;100529.56;5025429;28;20574;-54
2022/04/30 08:37:16;;;;;;;11.85;7.47;;;;;;;19.22;37.14;100528.16;5027898;28;20042;-53
2022/04/30 08:40:01;;;;;;;10.98;5.43;;;;;;;19.28;35.53;100527.88;5032029;28;20076;-53
2022/04/30 08:42:46;;;;;;;8.15;6.15;;;;;;;19.14;35.43;100531.19;5023011;28;20057;-53
2022/04/30 08:45:34;;;;;;;9.70;6.20;;;;;;;19.12;36.16;100522.44;5020923;28;20107;-53
2022/04/30 08:48:18;;;;;;;12.68;5.90;;;;;;;19.23;35.48;100520.09;5021732;28;20080;-54
2022/04/30 08:51:03;;;;;;;9.68;6.32;;;;;;;19.24;35.42;100516.53;5021509;28;20045;-53
2022/04/30 08:53:47;;;;;;;9.02;5.93;;;;;;;19.15;34.20;100514.34;5019471;28;20058;-54
2022/04/30 08:56:38;;;;;;;28.63;14.25;;;;;;;18.82;33.65;100519.50;5001990;28;20073;-53
2022/04/30 08:59:23;;;;;;;32.85;16.52;;;;;;;18.91;36.18;100521.69;5001125;28;20049;-53
2022/04/30 09:02:10;;;;;;;58.63;28.17;;;;;;;18.98;36.96;100517.81;5000371;28;20049;-53
2022/04/30 09:04:55;;;;;;;37.38;18.58;;;;;;;18.76;36.78;100525.09;5002017;28;20465;-53
2022/04/30 09:07:40;;;;;;;31.45;14.88;;;;;;;19.04;36.42;100512.19;5000769;28;20049;-52
2022/04/30 09:10:29;;;;;;;20.58;10.30;;;;;;;19.59;36.29;100517.38;5000028;28;20240;-53
2022/04/30 09:13:16;;;;;;;22.52;9.35;;;;;;;19.38;36.07;100516.69;4999932;28;20054;-53
2022/04/30 09:16:00;;;;;;;44.00;18.02;;;;;;;19.18;35.18;100505.38;4999440;28;20053;-53
2022/04/30 09:18:45;;;;;;;186.38;83.25;;;;;;;18.29;35.63;100510.41;4999526;28;20125;-53
2022/04/30 09:21:30;;;;;;;24.45;10.85;;;;;;;18.32;36.12;100510.28;4999668;28;20061;-53
2022/04/30 09:24:15;;;;;;;19.50;8.85;;;;;;;18.19;37.02;100504.66;4998832;28;20041;-54
2022/04/30 09:27:03;;;;;;;13.82;7.57;;;;;;;18.74;36.50;100490.66;4999257;28;20508;-52
2022/04/30 09:29:48;;;;;;;13.27;6.30;;;;;;;19.25;37.42;100496.16;5000347;28;20045;-53
2022/04/30 09:32:32;;;;;;;15.45;7.80;;;;;;;19.20;36.66;100493.69;4998626;28;20485;-56
2022/04/30 09:38:24;;;;;;;13.23;5.18;;;;;;;19.21;35.23;100487.47;5004437;28;20117;-53
2022/04/30 09:41:08;;;;;;;9.05;5.78;;;;;;;19.43;35.78;100489.88;5005067;28;20054;-53
2022/04/30 09:44:07;;;;;;;8.18;4.03;;;;;;;19.37;34.01;100491.06;5007939;28;20132;-53
2022/04/30 09:46:53;;;;;;;8.23;3.97;;;;;;;19.20;34.37;100490.19;4990672;28;20064;-53
2022/04/30 09:55:54;;;;;;;8.80;5.43;;;;;;;19.58;35.50;100497.06;5025624;28;20023;-52
2022/04/30 09:58:40;;;;;;;12.90;8.25;;;;;;;19.41;34.07;100480.31;5026450;28;20730;-53
2022/04/30 10:01:26;;;;;;;11.52;8.00;;;;;;;19.40;35.16;100487.38;5025212;28;20076;-52
2022/04/30 10:04:14;;;;;;;12.18;6.75;;;;;;;19.85;35.09;100478.84;5028494;28;20657;-53
2022/04/30 10:07:00;;;;;;;8.15;6.13;;;;;;;19.99;35.56;100485.28;5026679;28;20379;-53
2022/04/30 10:10:04;;;;;;;16.27;11.45;;;;;;;19.89;35.14;100482.25;5026437;28;20049;-54
2022/04/30 10:12:56;;;;;;;12.20;7.45;;;;;;;19.37;34.45;100474.28;5026318;28;20052;-54
2022/04/30 10:15:51;;;;;;;11.60;8.15;;;;;;;19.90;35.09;100473.31;5025696;28;20408;-54
2022/04/30 10:18:42;;;;;;;10.20;6.50;;;;;;;20.20;35.12;100468.13;5028687;28;20049;-52
2022/04/30 10:21:27;;;;;;;9.18;4.95;;;;;;;20.45;33.82;100475.63;5022636;28;20145;-52
2022/04/30 10:24:14;;;;;;;7.30;4.03;;;;;;;20.57;33.37;100471.44;5031104;28;20124;-54
2022/04/30 10:26:59;;;;;;;7.10;3.47;;;;;;;20.84;32.72;100465.53;5024513;28;20049;-53
2022/04/30 10:29:59;;;;;;;8.57;4.43;;;;;;;20.55;32.91;100468.03;5033386;28;20536;-53
2022/04/30 10:32:54;;;;;;;8.45;4.85;;;;;;;20.90;33.70;100458.03;5032441;28;20048;-52
2022/04/30 10:35:40;;;;;;;6.70;4.07;;;;;;;21.33;33.29;100460.84;5026332;28;20049;-53
2022/04/30 10:38:25;;;;;;;8.32;4.07;;;;;;;21.29;31.38;100453.16;5030424;28;20111;-53
2022/04/30 10:41:10;;;;;;;10.45;3.88;;;;;;;21.56;32.06;100456.84;5030531;28;20053;-53
2022/04/30 10:44:00;;;;;;;8.20;4.28;;;;;;;21.05;32.25;100456.28;5027041;28;20049;-52
2022/04/30 10:46:45;;;;;;;11.25;4.30;;;;;;;21.19;31.79;100461.69;5040775;28;20049;-54
2022/04/30 10:49:30;;;;;;;11.80;4.00;;;;;;;21.48;32.25;100451.09;5038760;28;20590;-54
2022/04/30 10:52:21;;;;;;;7.68;4.05;;;;;;;21.46;32.95;100447.69;5030005;28;20142;-52
2022/04/30 10:55:06;;;;;;;4.57;2.83;;;;;;;21.63;31.94;100439.53;5031738;28;20049;-53
2022/04/30 10:57:52;;;;;;;7.30;3.08;;;;;;;21.67;31.75;100448.19;5031013;28;20053;-52
2022/04/30 11:00:37;;;;;;;7.35;2.90;;;;;;;21.52;30.22;100438.47;5029461;28;20057;-53
2022/04/30 11:03:28;;;;;;;5.80;3.03;;;;;;;21.44;30.26;100437.09;5031404;28;20053;-52
2022/04/30 11:06:19;;;;;;;4.20;2.70;;;;;;;21.40;29.95;100435.59;5031447;28;20053;-53
2022/04/30 11:09:06;;;;;;;6.03;2.70;;;;;;;21.10;29.97;100438.25;5031721;28;20296;-53
2022/04/30 11:11:51;;;;;;;4.43;2.53;;;;;;;21.50;30.14;100430.56;5029144;28;20045;-53
2022/04/30 11:14:36;;;;;;;4.90;2.55;;;;;;;21.74;30.30;100428.19;5028612;28;20045;-53
2022/04/30 11:17:21;;;;;;;12.45;3.13;;;;;;;21.35;31.40;100432.34;5028120;28;20049;-52
2022/04/30 11:20:06;;;;;;;6.70;3.10;;;;;;;21.70;30.68;100426.66;5031415;28;20480;-53
2022/04/30 11:22:58;;;;;;;4.68;2.35;;;;;;;21.95;29.35;100420.69;5030147;28;20662;-52
2022/04/30 11:25:43;;;;;;;4.10;2.13;;;;;;;22.12;28.87;100422.28;5030545;28;20120;-53
2022/04/30 11:28:29;;;;;;;4.25;2.20;;;;;;;22.44;29.36;100414.06;5032645;28;20477;-53
2022/04/30 11:31:19;;;;;;;6.53;2.13;;;;;;;21.00;29.36;100415.78;5031900;28;20033;-53
2022/04/30 11:34:17;;;;;;;3.35;1.83;;;;;;;21.72;29.48;100410.59;5031024;28;20056;-53
2022/04/30 11:37:01;;;;;;;4.45;1.60;;;;;;;21.32;28.98;100421.84;5032869;28;20057;-53
2022/04/30 11:39:46;;;;;;;4.72;1.90;;;;;;;21.78;28.33;100415.56;5030264;28;20139;-53
2022/04/30 11:42:31;;;;;;;4.68;2.15;;;;;;;21.07;28.36;100406.47;5035072;28;20064;-54
2022/04/30 11:45:28;;;;;;;5.97;2.35;;;;;;;20.35;29.89;100412.41;5040639;28;20103;-53
2022/04/30 11:48:13;;;;;;;3.90;2.50;;;;;;;20.78;28.99;100403.69;5032884;28;20045;-53
2022/04/30 11:50:58;;;;;;;6.45;2.50;;;;;;;21.28;29.92;100406.13;5033587;28;20119;-53
2022/04/30 11:53:42;;;;;;;6.63;2.50;;;;;;;21.47;29.34;100404.09;5028019;28;20084;-53
2022/04/30 11:56:27;;;;;;;6.30;3.88;;;;;;;21.56;29.25;100397.34;5029469;28;20056;-53
2022/04/30 11:59:12;;;;;;;5.95;2.10;;;;;;;22.00;28.96;100383.94;5023811;28;20053;-53
2022/04/30 12:02:10;;;;;;;4.95;1.85;;;;;;;22.08;27.96;100389.63;5023519;28;20622;-53
2022/04/30 12:05:00;;;;;;;5.10;1.98;;;;;;;21.68;27.00;100380.63;5023816;28;20579;-54
2022/04/30 12:07:46;;;;;;;4.25;2.20;;;;;;;21.80;28.29;100384.31;5023663;28;20429;-53
2022/04/30 12:10:30;;;;;;;5.05;1.80;;;;;;;21.57;28.77;100367.94;5020766;28;20037;-53
2022/04/30 12:13:23;;;;;;;5.63;2.28;;;;;;;21.85;28.83;100371.56;5020844;28;20099;-53
2022/04/30 12:16:07;;;;;;;5.97;2.28;;;;;;;21.36;28.53;100356.81;5019328;28;20691;-53
2022/04/30 12:24:59;;;;;;;;;;;;;;;21.56;29.68;100360.06;5019389;28;20041;-54
2022/04/30 12:27:59;;;;;;;2.78;1.40;;;;;;;21.71;29.70;100359.09;5018470;28;19956;-53
2022/04/30 12:30:54;;;;;;;2.95;1.90;;;;;;;20.77;28.75;100362.06;5019236;28;20477;-52
2022/04/30 12:33:50;;;;;;;3.00;1.60;;;;;;;21.53;28.06;100349.56;5021029;28;20966;-53
2022/04/30 12:36:34;;;;;;;11.07;2.67;;;;;;;21.20;27.80;100354.19;5018662;28;20049;-54
2022/04/30 12:39:19;;;;;;;3.13;1.45;;;;;;;21.73;27.93;100349.19;5018723;28;20096;-52
2022/04/30 12:42:08;;;;;;;4.55;1.60;;;;;;;21.60;27.18;100342.91;5022801;28;20053;-54
2022/04/30 12:44:52;;;;;;;4.50;1.98;;;;;;;21.61;28.50;100337.50;5019842;28;20557;-53
2022/04/30 12:47:36;;;;;;;2.90;1.35;;;;;;;21.83;28.50;100325.47;5021726;28;20057;-52
2022/04/30 12:50:21;;;;;;;2.63;1.38;;;;;;;21.00;26.30;100331.41;5023455;28;20045;-53
2022/04/30 12:53:09;;;;;;;2.85;1.45;;;;;;;21.16;28.10;100334.00;5020182;28;20049;-53
2022/04/30 12:55:54;;;;;;;4.97;1.73;;;;;;;21.44;26.69;100327.00;5022190;28;20053;-53
2022/04/30 12:58:40;;;;;;;6.57;1.60;;;;;;;21.01;27.73;100333.13;5022528;28;20136;-53
2022/04/30 13:01:25;;;;;;;4.07;1.15;;;;;;;20.70;26.74;100326.13;5018160;28;20509;-53
2022/04/30 13:04:11;;;;;;;3.28;1.15;;;;;;;21.39;26.79;100314.00;5019409;28;20060;-53
2022/04/30 13:06:56;;;;;;;2.53;1.33;;;;;;;20.95;26.78;100304.19;5021519;28;20049;-54
2022/04/30 13:15:47;;;;;;;2.90;1.23;;;;;;;21.84;26.37;100297.84;5022157;28;20041;-55
2022/04/30 13:18:33;;;;;;;2.13;1.20;;;;;;;21.84;27.44;100297.84;5022834;28;20045;-54
2022/04/30 13:21:18;;;;;;;2.97;1.30;;;;;;;21.69;26.39;100295.22;5024595;28;20158;-53
2022/04/30 13:24:03;;;;;;;2.45;1.20;;;;;;;21.79;26.27;100291.97;5026085;28;20057;-53
2022/04/30 13:26:48;;;;;;;2.78;0.80;;;;;;;21.72;26.29;100288.84;5025288;28;20049;-54
2022/04/30 13:29:32;;;;;;;4.47;1.30;;;;;;;21.49;26.30;100289.44;5027064;28;20045;-54